createdAt,value
2019-05-05T00:00:51.310Z,5.85
2019-05-05T00:02:18.558Z,5.27
2019-05-05T00:03:44.560Z,2.92
2019-05-05T00:05:24.650Z,6.47
2019-05-05T00:06:30.235Z,7.92
2019-05-05T00:07:38.531Z,5.08
2019-05-05T00:08:45.646Z,5.97
2019-05-05T00:09:50.725Z,5.30
2019-05-05T00:11:15.401Z,4.07
2019-05-05T00:12:39.751Z,4.60
2019-05-05T00:13:50.569Z,7.35
2019-05-05T00:15:20.815Z,5.93
2019-05-05T00:16:39.138Z,4.83
2019-05-05T00:17:45.029Z,3.30
2019-05-05T00:18:50.773Z,5.30
2019-05-05T00:19:55.968Z,4.43
2019-05-05T00:21:01.249Z,7.20
2019-05-05T00:22:06.440Z,6.10
2019-05-05T00:23:11.695Z,8.57
2019-05-05T00:24:16.840Z,6.07
2019-05-05T00:25:22.182Z,6.80
2019-05-05T00:26:27.457Z,5.37
2019-05-05T00:27:34.584Z,5.27
2019-05-05T00:28:39.801Z,7.83
2019-05-05T00:29:45.431Z,5.20
2019-05-05T00:30:50.762Z,8.15
2019-05-05T00:31:56.004Z,5.62
2019-05-05T00:33:01.206Z,6.83
2019-05-05T00:34:06.483Z,4.50
2019-05-05T00:35:11.882Z,4.50
2019-05-05T00:36:16.992Z,6.17
2019-05-05T00:37:22.090Z,5.50
2019-05-05T00:38:27.241Z,5.28
2019-05-05T00:39:34.332Z,4.92
2019-05-05T00:40:39.144Z,5.97
2019-05-05T00:41:44.988Z,7.53
2019-05-05T00:42:50.195Z,8.20
2019-05-05T00:43:55.530Z,7.12
2019-05-05T00:45:00.921Z,5.42
2019-05-05T00:46:12.062Z,8.37
2019-05-05T00:47:54.587Z,6.87
2019-05-05T00:48:59.736Z,9.30
2019-05-05T00:50:06.170Z,6.37
2019-05-05T00:51:11.458Z,6.43
2019-05-05T00:52:17.413Z,6.33
2019-05-05T00:53:24.954Z,7.63
2019-05-05T00:54:29.507Z,6.20
2019-05-05T00:55:35.033Z,6.53
2019-05-05T00:56:40.444Z,4.53
2019-05-05T00:57:45.664Z,8.18
2019-05-05T00:58:56.055Z,10.63
2019-05-05T01:00:04.970Z,6.80
2019-05-05T01:01:44.726Z,6.37
2019-05-05T01:02:51.050Z,7.55
2019-05-05T01:03:56.330Z,7.47
2019-05-05T01:05:25.186Z,9.38
2019-05-05T01:06:31.418Z,6.80
2019-05-05T01:07:36.679Z,5.05
2019-05-05T01:08:41.812Z,6.10
2019-05-05T01:09:47.227Z,7.53
2019-05-05T01:10:54.716Z,8.20
2019-05-05T01:11:59.713Z,5.30
2019-05-05T01:13:05.141Z,6.97
2019-05-05T01:14:10.431Z,5.77
2019-05-05T01:15:15.902Z,8.00
2019-05-05T01:16:21.071Z,6.00
2019-05-05T01:17:26.358Z,8.00
2019-05-05T01:18:31.548Z,8.68
2019-05-05T01:19:36.779Z,8.35
2019-05-05T01:20:41.988Z,7.95
2019-05-05T01:21:47.231Z,7.00
2019-05-05T01:22:52.325Z,6.07
2019-05-05T01:23:57.346Z,5.10
2019-05-05T01:25:02.481Z,5.53
2019-05-05T01:26:07.609Z,7.10
2019-05-05T01:27:14.614Z,6.43
2019-05-05T01:28:19.435Z,6.90
2019-05-05T01:29:25.226Z,7.97
2019-05-05T01:30:31.940Z,6.95
2019-05-05T01:31:37.503Z,8.73
2019-05-05T01:32:44.859Z,5.13
2019-05-05T01:34:08.036Z,6.78
2019-05-05T01:35:14.425Z,6.53
2019-05-05T01:36:20.734Z,11.13
2019-05-05T01:37:40.522Z,6.03
2019-05-05T01:38:51.930Z,10.87
2019-05-05T01:40:05.067Z,13.63
2019-05-05T01:41:28.668Z,8.20
2019-05-05T01:42:35.264Z,6.70
2019-05-05T01:43:40.533Z,6.40
2019-05-05T01:44:45.809Z,6.17
2019-05-05T01:45:51.077Z,6.00
2019-05-05T01:46:56.287Z,5.90
2019-05-05T01:48:04.907Z,9.87
2019-05-05T01:49:11.083Z,7.87
2019-05-05T01:50:20.985Z,7.60
2019-05-05T01:51:24.774Z,6.55
2019-05-05T01:52:30.062Z,6.70
2019-05-05T01:53:35.291Z,7.33
2019-05-05T01:54:40.435Z,5.62
2019-05-05T01:55:45.633Z,8.03
2019-05-05T01:56:52.403Z,6.10
2019-05-05T01:57:57.774Z,6.03
2019-05-05T01:59:04.998Z,5.55
2019-05-05T02:00:09.980Z,8.33
2019-05-05T02:01:15.717Z,7.05
2019-05-05T02:02:21.046Z,5.42
2019-05-05T02:03:26.315Z,7.37
2019-05-05T02:04:31.639Z,4.97
2019-05-05T02:05:36.835Z,9.88
2019-05-05T02:06:44.145Z,5.50
2019-05-05T02:07:48.751Z,6.83
2019-05-05T02:08:54.794Z,9.43
2019-05-05T02:10:01.249Z,6.17
2019-05-05T02:11:08.224Z,9.23
2019-05-05T02:12:15.211Z,6.87
2019-05-05T02:13:20.252Z,8.40
2019-05-05T02:14:25.700Z,7.03
2019-05-05T02:15:30.823Z,9.90
2019-05-05T02:16:35.966Z,8.25
2019-05-05T02:17:44.397Z,6.57
2019-05-05T02:18:49.139Z,7.97
2019-05-05T02:19:54.914Z,8.20
2019-05-05T02:21:05.133Z,7.03
2019-05-05T02:22:10.383Z,5.77
2019-05-05T02:23:16.773Z,5.28
2019-05-05T02:24:21.941Z,8.25
2019-05-05T02:25:27.063Z,7.83
2019-05-05T02:26:32.250Z,7.08
2019-05-05T02:27:37.437Z,10.37
2019-05-05T02:29:00.484Z,7.95
2019-05-05T02:30:27.952Z,7.72
2019-05-05T02:31:40.747Z,5.35
2019-05-05T02:32:55.446Z,6.30
2019-05-05T02:33:59.836Z,6.85
2019-05-05T02:35:07.523Z,5.40
2019-05-05T02:36:15.726Z,7.45
2019-05-05T02:37:19.595Z,6.97
2019-05-05T02:38:26.187Z,6.67
2019-05-05T02:39:34.107Z,7.55
2019-05-05T02:40:38.642Z,6.72
2019-05-05T02:41:45.672Z,8.30
2019-05-05T02:42:51.444Z,7.77
2019-05-05T02:43:57.986Z,6.67
2019-05-05T02:45:07.114Z,7.50
2019-05-05T02:46:25.554Z,8.60
2019-05-05T02:47:56.372Z,8.38
2019-05-05T02:49:05.300Z,5.58
2019-05-05T02:50:11.105Z,8.23
2019-05-05T02:51:17.351Z,5.83
2019-05-05T02:52:24.573Z,9.23
2019-05-05T02:53:36.143Z,7.20
2019-05-05T02:54:41.847Z,5.28
2019-05-05T02:55:47.531Z,5.83
2019-05-05T02:56:54.196Z,6.28
2019-05-05T02:58:00.296Z,7.35
2019-05-05T02:59:08.098Z,9.63
2019-05-05T03:00:34.332Z,7.33
2019-05-05T03:01:46.535Z,10.20
2019-05-05T03:02:53.397Z,8.47
2019-05-05T03:04:00.649Z,7.25
2019-05-05T03:05:06.198Z,7.03
2019-05-05T03:06:11.472Z,8.08
2019-05-05T03:07:18.947Z,7.75
2019-05-05T03:08:26.032Z,6.78
2019-05-05T03:09:31.534Z,7.55
2019-05-05T03:10:40.451Z,6.62
2019-05-05T03:11:48.685Z,6.25
2019-05-05T03:12:55.003Z,6.30
2019-05-05T03:14:04.082Z,8.00
2019-05-05T03:15:11.416Z,9.58
2019-05-05T03:16:18.891Z,7.30
2019-05-05T03:17:24.983Z,10.60
2019-05-05T03:18:30.530Z,10.75
2019-05-05T03:19:35.894Z,10.37
2019-05-05T03:20:41.157Z,7.75
2019-05-05T03:21:46.453Z,7.03
2019-05-05T03:22:53.799Z,6.50
2019-05-05T03:23:59.058Z,7.78
2019-05-05T03:25:04.840Z,8.13
2019-05-05T03:26:11.433Z,8.43
2019-05-05T03:27:16.810Z,9.50
2019-05-05T03:28:23.990Z,7.67
2019-05-05T03:29:33.593Z,8.85
2019-05-05T03:30:39.032Z,8.60
2019-05-05T03:31:45.692Z,9.28
2019-05-05T03:32:51.433Z,7.33
2019-05-05T03:33:57.357Z,6.40
2019-05-05T03:35:04.276Z,7.65
2019-05-05T03:36:10.012Z,9.43
2019-05-05T03:37:18.191Z,6.87
2019-05-05T03:38:25.052Z,10.67
2019-05-05T03:39:33.874Z,7.10
2019-05-05T03:40:40.226Z,10.95
2019-05-05T03:42:03.620Z,6.72
2019-05-05T03:43:15.483Z,9.50
2019-05-05T03:44:26.879Z,9.90
2019-05-05T03:45:57.889Z,9.48
2019-05-05T03:47:03.544Z,8.98
2019-05-05T03:48:08.938Z,8.23
2019-05-05T03:49:14.301Z,6.67
2019-05-05T03:50:19.695Z,7.95
2019-05-05T03:51:25.281Z,7.15
2019-05-05T03:52:30.620Z,7.87
2019-05-05T03:53:35.815Z,9.68
2019-05-05T03:54:41.107Z,6.85
2019-05-05T03:55:46.325Z,9.60
2019-05-05T03:57:07.939Z,9.43
2019-05-05T03:58:14.673Z,7.78
2019-05-05T03:59:20.137Z,6.90
2019-05-05T04:00:45.881Z,8.40
2019-05-05T04:01:56.933Z,9.98
2019-05-05T04:03:07.325Z,9.20
2019-05-05T04:04:46.503Z,8.73
2019-05-05T04:05:57.145Z,8.98
2019-05-05T04:07:04.551Z,7.60
2019-05-05T04:08:09.547Z,9.00
2019-05-05T04:09:14.721Z,7.90
2019-05-05T04:10:20.077Z,7.00
2019-05-05T04:11:25.364Z,10.53
2019-05-05T04:12:30.680Z,8.60
2019-05-05T04:13:35.723Z,7.83
2019-05-05T04:14:41.507Z,8.53
2019-05-05T04:16:07.679Z,8.85
2019-05-05T04:17:24.485Z,9.43
2019-05-05T04:18:30.922Z,7.92
2019-05-05T04:19:37.252Z,7.73
2019-05-05T04:20:44.217Z,9.05
2019-05-05T04:21:49.402Z,8.43
2019-05-05T04:22:57.736Z,9.43
2019-05-05T04:24:01.376Z,10.63
2019-05-05T04:25:06.674Z,9.35
2019-05-05T04:26:14.115Z,13.13
2019-05-05T04:27:18.779Z,7.77
2019-05-05T04:28:24.148Z,10.98
2019-05-05T04:29:29.587Z,10.50
2019-05-05T04:30:34.930Z,10.67
2019-05-05T04:31:40.250Z,8.57
2019-05-05T04:32:45.544Z,7.37
2019-05-05T04:33:50.763Z,8.77
2019-05-05T04:34:56.038Z,7.90
2019-05-05T04:36:01.241Z,10.00
2019-05-05T04:37:06.453Z,12.35
2019-05-05T04:38:13.381Z,8.37
2019-05-05T04:39:18.344Z,11.95
2019-05-05T04:40:24.008Z,8.00
2019-05-05T04:41:29.431Z,9.70
2019-05-05T04:42:34.711Z,14.38
2019-05-05T04:43:39.995Z,6.33
2019-05-05T04:44:45.132Z,9.70
2019-05-05T04:45:50.277Z,13.22
2019-05-05T04:46:59.095Z,8.75
2019-05-05T04:48:13.892Z,8.00
2019-05-05T04:49:41.075Z,8.93
2019-05-05T04:51:08.048Z,9.40
2019-05-05T04:52:16.052Z,8.67
2019-05-05T04:53:26.085Z,8.53
2019-05-05T04:54:51.421Z,10.93
2019-05-05T04:55:56.525Z,8.60
2019-05-05T04:57:01.740Z,9.63
2019-05-05T04:58:06.894Z,7.60
2019-05-05T04:59:14.283Z,10.73
2019-05-05T05:00:19.050Z,8.97
2019-05-05T05:01:24.380Z,8.70
2019-05-05T05:02:53.977Z,11.73
2019-05-05T05:04:21.276Z,11.23
2019-05-05T05:05:30.463Z,8.63
2019-05-05T05:06:45.282Z,11.40
2019-05-05T05:07:50.413Z,9.03
2019-05-05T05:08:55.560Z,12.40
2019-05-05T05:10:00.843Z,13.00
2019-05-05T05:11:06.062Z,11.20
2019-05-05T05:12:11.271Z,9.77
2019-05-05T05:13:18.832Z,11.33
2019-05-05T05:14:24.800Z,8.93
2019-05-05T05:15:30.160Z,10.20
2019-05-05T05:16:35.735Z,13.67
2019-05-05T05:17:46.514Z,13.37
2019-05-05T05:18:53.676Z,12.83
2019-05-05T05:19:58.483Z,8.93
2019-05-05T05:21:04.042Z,13.27
2019-05-05T05:22:09.207Z,8.07
2019-05-05T05:23:15.471Z,11.10
2019-05-05T05:24:20.659Z,10.87
2019-05-05T05:25:25.882Z,11.77
2019-05-05T05:26:31.047Z,9.63
2019-05-05T05:27:36.294Z,7.10
2019-05-05T05:28:41.488Z,9.13
2019-05-05T05:29:46.753Z,7.97
2019-05-05T05:30:51.977Z,12.50
2019-05-05T05:31:57.195Z,9.90
2019-05-05T05:33:04.192Z,9.77
2019-05-05T05:34:09.301Z,12.07
2019-05-05T05:35:14.487Z,10.53
2019-05-05T05:36:19.611Z,10.47
2019-05-05T05:37:24.788Z,12.67
2019-05-05T05:38:30.086Z,9.57
2019-05-05T05:39:41.446Z,10.10
2019-05-05T05:40:51.303Z,11.20
2019-05-05T05:41:57.510Z,12.87
2019-05-05T05:43:04.672Z,14.27
2019-05-05T05:44:29.866Z,11.23
2019-05-05T05:45:43.647Z,12.23
2019-05-05T05:46:56.927Z,13.47
2019-05-05T05:48:30.021Z,10.00
2019-05-05T05:49:43.875Z,13.27
2019-05-05T05:50:54.189Z,12.80
2019-05-05T05:52:12.097Z,14.70
2019-05-05T05:53:06.130Z,9.27
2019-05-05T05:54:11.413Z,12.47
2019-05-05T05:55:16.658Z,12.07
2019-05-05T05:56:21.875Z,13.47
2019-05-05T05:57:26.966Z,12.93
2019-05-05T05:58:33.748Z,11.90
2019-05-05T05:59:39.210Z,11.23
2019-05-05T06:00:44.493Z,12.33
2019-05-05T06:01:49.632Z,14.03
2019-05-05T06:02:54.770Z,13.60
2019-05-05T06:04:00.061Z,15.30
2019-05-05T06:05:05.935Z,9.63
2019-05-05T06:06:11.171Z,13.20
2019-05-05T06:07:16.316Z,13.50
2019-05-05T06:08:21.594Z,15.20
2019-05-05T06:09:26.792Z,11.80
2019-05-05T06:10:33.712Z,14.57
2019-05-05T06:11:39.140Z,14.73
2019-05-05T06:12:45.043Z,10.70
2019-05-05T06:13:50.278Z,10.97
2019-05-05T06:14:58.541Z,13.00
2019-05-05T06:16:04.520Z,13.70
2019-05-05T06:17:10.136Z,12.07
2019-05-05T06:18:15.454Z,9.50
2019-05-05T06:19:21.236Z,11.00
2019-05-05T06:20:26.727Z,10.97
2019-05-05T06:21:33.765Z,13.37
2019-05-05T06:22:40.591Z,10.10
2019-05-05T06:23:46.256Z,11.93
2019-05-05T06:24:54.645Z,10.93
2019-05-05T06:25:59.830Z,11.93
2019-05-05T06:27:05.200Z,12.90
2019-05-05T06:28:10.751Z,10.80
2019-05-05T06:29:15.993Z,11.77
2019-05-05T06:30:21.208Z,14.07
2019-05-05T06:31:28.098Z,14.77
2019-05-05T06:32:35.026Z,16.83
2019-05-05T06:33:43.835Z,13.87
2019-05-05T06:34:49.729Z,13.60
2019-05-05T06:35:55.036Z,20.37
2019-05-05T06:37:00.203Z,14.23
2019-05-05T06:38:05.448Z,11.20
2019-05-05T06:39:10.616Z,11.50
2019-05-05T06:40:17.516Z,15.10
2019-05-05T06:41:44.719Z,12.40
2019-05-05T06:42:56.309Z,12.80
2019-05-05T06:44:35.957Z,15.57
2019-05-05T06:45:46.056Z,16.20
2019-05-05T06:47:04.704Z,16.63
2019-05-05T06:48:09.885Z,15.53
2019-05-05T06:49:15.033Z,12.23
2019-05-05T06:50:20.581Z,13.80
2019-05-05T06:51:25.930Z,12.30
2019-05-05T06:52:41.960Z,20.00
2019-05-05T06:53:37.951Z,13.07
2019-05-05T06:54:43.807Z,15.43
2019-05-05T06:55:51.762Z,12.73
2019-05-05T06:56:56.092Z,12.40
2019-05-05T06:58:04.471Z,11.07
2019-05-05T06:59:09.189Z,13.87
2019-05-05T07:00:14.698Z,12.23
2019-05-05T07:01:19.823Z,15.47
2019-05-05T07:02:25.000Z,14.43
2019-05-05T07:03:30.193Z,13.50
2019-05-05T07:04:35.336Z,11.80
2019-05-05T07:05:40.476Z,15.67
2019-05-05T07:06:54.178Z,11.87
2019-05-05T07:07:53.728Z,17.23
2019-05-05T07:08:58.986Z,17.00
2019-05-05T07:10:04.389Z,14.67
2019-05-05T07:11:09.485Z,14.30
2019-05-05T07:12:14.699Z,14.23
2019-05-05T07:13:19.785Z,16.10
2019-05-05T07:14:24.946Z,13.13
2019-05-05T07:15:31.118Z,14.13
2019-05-05T07:16:36.205Z,11.60
2019-05-05T07:17:41.346Z,13.53
2019-05-05T07:18:46.509Z,14.27
2019-05-05T07:19:51.579Z,15.40
2019-05-05T07:20:56.775Z,11.00
2019-05-05T07:22:03.872Z,14.53
2019-05-05T07:23:08.866Z,13.50
2019-05-05T07:24:14.652Z,15.87
2019-05-05T07:25:19.784Z,13.63
2019-05-05T07:26:24.939Z,17.97
2019-05-05T07:27:30.204Z,13.47
2019-05-05T07:28:35.477Z,17.67
2019-05-05T07:29:40.628Z,11.10
2019-05-05T07:30:45.963Z,12.37
2019-05-05T07:31:51.170Z,12.47
2019-05-05T07:32:56.438Z,14.97
2019-05-05T07:34:01.772Z,11.63
2019-05-05T07:35:19.690Z,18.33
2019-05-05T07:36:34.918Z,15.83
2019-05-05T07:37:40.117Z,16.93
2019-05-05T07:38:49.057Z,11.33
2019-05-05T07:39:54.436Z,14.50
2019-05-05T07:40:59.507Z,12.30
2019-05-05T07:42:04.705Z,11.90
2019-05-05T07:43:09.979Z,19.47
2019-05-05T07:44:25.918Z,12.13
2019-05-05T07:45:25.122Z,11.83
2019-05-05T07:46:28.886Z,9.30
2019-05-05T07:47:34.291Z,15.83
2019-05-05T07:48:39.831Z,13.83
2019-05-05T07:49:44.999Z,15.70
2019-05-05T07:51:01.219Z,15.30
2019-05-05T07:51:57.211Z,16.47
2019-05-05T07:53:12.261Z,12.20
2019-05-05T07:54:09.385Z,19.53
2019-05-05T07:55:14.538Z,11.23
2019-05-05T07:56:20.866Z,19.57
2019-05-05T07:57:27.082Z,17.27
2019-05-05T07:58:34.402Z,15.50
2019-05-05T07:59:39.158Z,17.33
2019-05-05T08:00:44.304Z,13.63
2019-05-05T08:01:50.582Z,16.40
2019-05-05T08:02:55.721Z,20.00
2019-05-05T08:04:00.977Z,17.37
2019-05-05T08:05:06.761Z,18.60
2019-05-05T08:06:11.940Z,17.63
2019-05-05T08:07:17.101Z,14.70
2019-05-05T08:08:24.314Z,15.73
2019-05-05T08:09:29.184Z,17.20
2019-05-05T08:10:34.523Z,19.63
2019-05-05T08:11:39.624Z,16.80
2019-05-05T08:12:44.905Z,16.97
2019-05-05T08:13:50.480Z,23.60
2019-05-05T08:14:55.859Z,18.27
2019-05-05T08:16:03.809Z,25.03
2019-05-05T08:17:24.672Z,15.90
2019-05-05T08:18:54.696Z,25.37
2019-05-05T08:20:25.802Z,19.17
2019-05-05T08:21:31.158Z,17.70
2019-05-05T08:22:36.453Z,23.47
2019-05-05T08:24:07.388Z,21.93
2019-05-05T08:25:34.513Z,17.80
2019-05-05T08:26:45.767Z,21.83
2019-05-05T08:27:56.234Z,24.60
2019-05-05T08:29:19.189Z,20.30
2019-05-05T08:30:46.390Z,22.13
2019-05-05T08:31:57.283Z,20.80
2019-05-05T08:33:04.635Z,22.93
2019-05-05T08:34:10.031Z,20.77
2019-05-05T08:35:15.239Z,17.40
2019-05-05T08:36:20.675Z,23.37
2019-05-05T08:37:26.020Z,19.47
2019-05-05T08:38:31.467Z,20.87
2019-05-05T08:39:36.870Z,22.10
2019-05-05T08:40:43.799Z,17.53
2019-05-05T08:41:49.029Z,20.73
2019-05-05T08:42:54.550Z,20.17
2019-05-05T08:44:00.864Z,20.53
2019-05-05T08:45:06.364Z,21.30
2019-05-05T08:46:11.533Z,23.20
2019-05-05T08:47:16.791Z,17.63
2019-05-05T08:48:24.510Z,20.70
2019-05-05T08:49:29.074Z,17.93
2019-05-05T08:50:34.920Z,17.90
2019-05-05T08:51:40.649Z,16.33
2019-05-05T08:52:45.788Z,14.67
2019-05-05T08:53:51.060Z,22.13
2019-05-05T08:54:56.543Z,17.53
2019-05-05T08:56:03.942Z,19.83
2019-05-05T08:57:08.711Z,22.20
2019-05-05T08:58:14.875Z,18.67
2019-05-05T08:59:20.497Z,17.10
2019-05-05T09:00:26.116Z,19.33
2019-05-05T09:01:31.442Z,16.43
2019-05-05T09:02:36.564Z,20.10
2019-05-05T09:03:44.148Z,18.03
2019-05-05T09:04:48.696Z,22.27
2019-05-05T09:05:56.296Z,16.47
2019-05-05T09:07:01.491Z,17.37
2019-05-05T09:08:06.882Z,21.23
2019-05-05T09:09:14.230Z,21.63
2019-05-05T09:10:19.148Z,18.67
2019-05-05T09:11:24.332Z,15.97
2019-05-05T09:12:29.573Z,19.17
2019-05-05T09:13:35.943Z,15.80
2019-05-05T09:14:41.201Z,15.63
2019-05-05T09:15:46.418Z,17.37
2019-05-05T09:16:53.612Z,17.33
2019-05-05T09:17:58.509Z,20.50
2019-05-05T09:19:07.534Z,14.53
2019-05-05T09:20:13.696Z,16.60
2019-05-05T09:21:19.038Z,16.27
2019-05-05T09:22:24.633Z,20.33
2019-05-05T09:23:32.183Z,15.57
2019-05-05T09:25:05.293Z,17.43
2019-05-05T09:26:29.140Z,17.00
2019-05-05T09:27:53.607Z,19.63
2019-05-05T09:29:17.936Z,18.43
2019-05-05T09:30:38.121Z,16.13
2019-05-05T09:31:45.051Z,18.80
2019-05-05T09:32:50.393Z,18.87
2019-05-05T09:33:55.474Z,17.50
2019-05-05T09:35:00.678Z,18.53
2019-05-05T09:36:07.992Z,14.40
2019-05-05T09:37:14.338Z,18.10
2019-05-05T09:38:20.073Z,15.60
2019-05-05T09:39:25.315Z,14.83
2019-05-05T09:40:41.100Z,15.37
2019-05-05T09:41:46.357Z,16.17
2019-05-05T09:42:53.451Z,15.60
2019-05-05T09:43:58.372Z,16.13
2019-05-05T09:45:04.770Z,24.93
2019-05-05T09:46:11.622Z,16.53
2019-05-05T09:47:16.893Z,15.10
2019-05-05T09:48:24.126Z,20.87
2019-05-05T09:49:28.937Z,15.10
2019-05-05T09:50:34.247Z,14.53
2019-05-05T09:51:39.433Z,15.93
2019-05-05T09:52:44.601Z,13.93
2019-05-05T09:53:49.764Z,12.70
2019-05-05T09:54:54.945Z,14.67
2019-05-05T09:56:00.177Z,13.93
2019-05-05T09:57:05.433Z,15.27
2019-05-05T09:58:10.578Z,17.67
2019-05-05T09:59:15.956Z,18.37
2019-05-05T10:00:21.307Z,14.40
2019-05-05T10:01:26.498Z,16.67
2019-05-05T10:02:31.777Z,16.07
2019-05-05T10:03:37.043Z,18.60
2019-05-05T10:04:43.905Z,15.93
2019-05-05T10:05:49.153Z,18.33
2019-05-05T10:06:54.345Z,17.00
2019-05-05T10:07:59.659Z,17.50
2019-05-05T10:09:06.991Z,19.73
2019-05-05T10:10:13.827Z,15.87
2019-05-05T10:11:20.047Z,21.77
2019-05-05T10:12:25.340Z,19.63
2019-05-05T10:13:30.454Z,17.10
2019-05-05T10:14:35.732Z,20.30
2019-05-05T10:15:40.829Z,21.00
2019-05-05T10:16:46.120Z,20.23
2019-05-05T10:17:51.316Z,17.07
2019-05-05T10:18:56.411Z,20.13
2019-05-05T10:20:01.572Z,22.63
2019-05-05T10:21:07.047Z,15.87
2019-05-05T10:22:14.594Z,21.90
2019-05-05T10:23:19.196Z,17.93
2019-05-05T10:24:35.178Z,22.73
2019-05-05T10:25:51.264Z,17.10
2019-05-05T10:26:58.689Z,19.73
2019-05-05T10:28:04.460Z,18.23
2019-05-05T10:29:09.713Z,16.97
2019-05-05T10:30:15.162Z,16.77
2019-05-05T10:31:20.451Z,22.03
2019-05-05T10:32:25.679Z,22.13
2019-05-05T10:33:30.851Z,21.17
2019-05-05T10:34:36.270Z,23.77
2019-05-05T10:35:43.208Z,19.13
2019-05-05T10:36:49.805Z,14.43
2019-05-05T10:37:55.162Z,16.10
2019-05-05T10:39:07.424Z,17.83
2019-05-05T10:40:13.645Z,17.30
2019-05-05T10:41:18.979Z,18.27
2019-05-05T10:42:44.214Z,18.30
2019-05-05T10:43:50.601Z,18.13
2019-05-05T10:44:55.814Z,16.37
2019-05-05T10:46:01.332Z,16.57
2019-05-05T10:47:06.521Z,13.10
2019-05-05T10:48:11.625Z,16.90
2019-05-05T10:49:16.781Z,18.27
2019-05-05T10:50:22.045Z,11.70
2019-05-05T10:51:27.115Z,16.63
2019-05-05T10:52:33.755Z,12.97
2019-05-05T10:53:39.063Z,17.17
2019-05-05T10:54:44.976Z,12.00
2019-05-05T10:55:50.439Z,10.53
2019-05-05T10:56:55.517Z,12.37
2019-05-05T10:58:00.752Z,11.37
2019-05-05T10:59:06.047Z,11.57
2019-05-05T11:00:14.795Z,10.80
2019-05-05T11:01:18.739Z,10.90
2019-05-05T11:02:24.238Z,12.43
2019-05-05T11:03:29.656Z,12.63
2019-05-05T11:04:34.973Z,12.03
2019-05-05T11:05:44.774Z,18.37
2019-05-05T11:06:50.441Z,14.57
2019-05-05T11:07:55.730Z,12.73
2019-05-05T11:09:01.527Z,12.27
2019-05-05T11:10:08.589Z,18.80
2019-05-05T11:11:13.845Z,16.03
2019-05-05T11:12:19.112Z,13.73
2019-05-05T11:13:24.603Z,15.50
2019-05-05T11:14:29.741Z,15.97
2019-05-05T11:15:34.989Z,12.27
2019-05-05T11:16:40.219Z,14.80
2019-05-05T11:17:45.337Z,14.23
2019-05-05T11:18:50.473Z,15.10
2019-05-05T11:19:55.778Z,17.77
2019-05-05T11:21:00.989Z,12.17
2019-05-05T11:22:06.259Z,18.13
2019-05-05T11:23:14.588Z,14.83
2019-05-05T11:24:19.514Z,14.97
2019-05-05T11:25:24.855Z,14.73
2019-05-05T11:26:29.991Z,15.03
2019-05-05T11:27:35.360Z,17.07
2019-05-05T11:28:40.637Z,16.70
2019-05-05T11:30:04.014Z,20.93
2019-05-05T11:31:09.668Z,22.77
2019-05-05T11:32:33.954Z,18.80
2019-05-05T11:33:51.282Z,16.20
2019-05-05T11:34:56.925Z,14.07
2019-05-05T11:36:07.405Z,13.20
2019-05-05T11:37:19.036Z,21.83
2019-05-05T11:38:24.763Z,13.50
2019-05-05T11:39:30.434Z,20.90
2019-05-05T11:40:35.773Z,19.17
2019-05-05T11:41:41.009Z,15.07
2019-05-05T11:42:46.621Z,12.03
2019-05-05T11:43:53.510Z,16.90
2019-05-05T11:44:59.074Z,13.90
2019-05-05T11:46:04.575Z,12.03
2019-05-05T11:47:09.973Z,13.03
2019-05-05T11:48:15.332Z,15.00
2019-05-05T11:49:20.773Z,14.70
2019-05-05T11:50:26.112Z,16.10
2019-05-05T11:51:31.196Z,14.27
2019-05-05T11:52:36.472Z,14.87
2019-05-05T11:53:44.812Z,10.80
2019-05-05T11:54:50.293Z,15.80
2019-05-05T11:55:55.689Z,15.37
2019-05-05T11:57:00.940Z,12.30
2019-05-05T11:58:06.630Z,14.37
2019-05-05T11:59:11.787Z,15.43
2019-05-05T12:00:17.532Z,18.40
2019-05-05T12:01:24.324Z,15.60
2019-05-05T12:02:33.343Z,15.47
2019-05-05T12:03:38.230Z,16.10
2019-05-05T12:04:43.646Z,15.73
2019-05-05T12:05:48.888Z,11.83
2019-05-05T12:06:53.969Z,16.33
2019-05-05T12:08:00.364Z,14.60
2019-05-05T12:09:13.868Z,12.13
2019-05-05T12:10:40.573Z,11.67
2019-05-05T12:11:45.931Z,11.70
2019-05-05T12:12:51.108Z,11.77
2019-05-05T12:13:56.362Z,11.67
2019-05-05T12:15:01.549Z,14.93
2019-05-05T12:16:08.474Z,12.67
2019-05-05T12:17:15.172Z,11.53
2019-05-05T12:18:20.519Z,10.43
2019-05-05T12:19:25.688Z,11.87
2019-05-05T12:20:38.106Z,10.37
2019-05-05T12:21:44.184Z,12.90
2019-05-05T12:22:50.552Z,14.33
2019-05-05T12:23:55.861Z,11.00
2019-05-05T12:25:04.113Z,11.23
2019-05-05T12:26:31.427Z,15.00
2019-05-05T12:27:41.933Z,13.83
2019-05-05T12:28:50.646Z,10.57
2019-05-05T12:30:03.898Z,13.27
2019-05-05T12:31:15.552Z,12.70
2019-05-05T12:32:20.862Z,14.80
2019-05-05T12:33:26.163Z,14.73
2019-05-05T12:34:31.451Z,11.77
2019-05-05T12:35:36.565Z,12.27
2019-05-05T12:36:41.848Z,13.03
2019-05-05T12:37:47.185Z,13.33
2019-05-05T12:38:54.395Z,13.23
2019-05-05T12:39:59.363Z,12.00
2019-05-05T12:41:04.609Z,11.53
2019-05-05T12:42:14.068Z,16.83
2019-05-05T12:43:19.472Z,16.27
2019-05-05T12:44:36.224Z,19.67
2019-05-05T12:45:45.188Z,11.20
2019-05-05T12:47:27.823Z,11.50
2019-05-05T12:48:35.385Z,14.53
2019-05-05T12:49:40.596Z,11.70
2019-05-05T12:50:47.058Z,13.13
2019-05-05T12:51:54.077Z,9.27
2019-05-05T12:52:59.047Z,11.50
2019-05-05T12:54:04.650Z,13.10
2019-05-05T12:55:10.187Z,13.53
2019-05-05T12:56:15.557Z,13.80
2019-05-05T12:57:20.771Z,15.43
2019-05-05T12:58:26.116Z,11.83
2019-05-05T12:59:34.112Z,13.43
2019-05-05T13:00:40.913Z,15.47
2019-05-05T13:01:45.991Z,15.87
2019-05-05T13:02:51.214Z,14.57
2019-05-05T13:03:56.581Z,9.43
2019-05-05T13:05:04.136Z,13.93
2019-05-05T13:06:10.171Z,14.57
2019-05-05T13:07:15.423Z,13.33
2019-05-05T13:08:20.776Z,12.17
2019-05-05T13:09:26.047Z,13.03
2019-05-05T13:10:31.238Z,13.53
2019-05-05T13:11:36.636Z,12.17
2019-05-05T13:12:44.855Z,22.17
2019-05-05T13:13:50.122Z,14.57
2019-05-05T13:14:55.400Z,14.03
2019-05-05T13:16:00.640Z,15.53
2019-05-05T13:17:05.951Z,16.57
2019-05-05T13:18:11.284Z,12.87
2019-05-05T13:19:31.911Z,10.50
2019-05-05T13:20:47.043Z,12.27
2019-05-05T13:22:20.221Z,10.80
2019-05-05T13:23:41.436Z,15.97
2019-05-05T13:25:13.764Z,14.87
2019-05-05T13:26:37.498Z,14.13
2019-05-05T13:27:45.044Z,9.20
2019-05-05T13:28:50.333Z,10.67
2019-05-05T13:29:55.604Z,14.90
2019-05-05T13:31:00.817Z,17.17
2019-05-05T13:32:06.051Z,11.87
2019-05-05T13:33:11.425Z,13.07
2019-05-05T13:34:16.805Z,12.83
2019-05-05T13:35:23.491Z,13.33
2019-05-05T13:36:28.849Z,13.90
2019-05-05T13:37:34.042Z,15.83
2019-05-05T13:38:39.292Z,12.17
2019-05-05T13:39:44.639Z,14.83
2019-05-05T13:40:49.885Z,11.93
2019-05-05T13:41:56.235Z,14.30
2019-05-05T13:43:04.103Z,15.33
2019-05-05T13:44:14.859Z,10.23
2019-05-05T13:45:48.816Z,18.80
2019-05-05T13:46:54.059Z,11.10
2019-05-05T13:47:59.308Z,10.23
2019-05-05T13:49:27.837Z,14.73
2019-05-05T13:50:36.264Z,12.17
2019-05-05T13:51:41.525Z,14.33
2019-05-05T13:52:46.639Z,11.00
2019-05-05T13:53:53.859Z,12.00
2019-05-05T13:54:58.808Z,15.40
2019-05-05T13:56:11.514Z,13.97
2019-05-05T13:57:10.983Z,14.33
2019-05-05T13:58:16.363Z,16.63
2019-05-05T13:59:21.658Z,12.07
2019-05-05T14:00:27.204Z,11.63
2019-05-05T14:01:34.170Z,16.27
2019-05-05T14:02:39.625Z,9.90
2019-05-05T14:03:44.996Z,11.40
2019-05-05T14:04:50.137Z,17.63
2019-05-05T14:05:55.344Z,12.67
2019-05-05T14:07:00.558Z,12.83
2019-05-05T14:08:05.691Z,13.10
2019-05-05T14:09:10.932Z,14.70
2019-05-05T14:10:17.427Z,10.53
2019-05-05T14:11:24.528Z,13.40
2019-05-05T14:12:29.653Z,13.50
2019-05-05T14:13:34.870Z,15.53
2019-05-05T14:14:40.340Z,11.03
2019-05-05T14:15:45.664Z,10.83
2019-05-05T14:16:50.995Z,11.47
2019-05-05T14:17:56.141Z,9.37
2019-05-05T14:19:01.367Z,11.13
2019-05-05T14:20:11.710Z,12.33
2019-05-05T14:21:14.668Z,11.13
2019-05-05T14:22:19.976Z,11.57
2019-05-05T14:23:25.264Z,14.33
2019-05-05T14:24:49.491Z,13.83
2019-05-05T14:25:54.644Z,14.00
2019-05-05T14:26:59.856Z,9.00
2019-05-05T14:28:05.415Z,11.00
2019-05-05T14:29:14.521Z,12.17
2019-05-05T14:30:37.942Z,11.53
2019-05-05T14:31:44.401Z,9.93
2019-05-05T14:32:49.759Z,16.77
2019-05-05T14:33:57.351Z,9.13
2019-05-05T14:35:09.796Z,14.40
2019-05-05T14:36:44.141Z,10.73
2019-05-05T14:37:53.513Z,11.40
2019-05-05T14:38:59.970Z,11.57
2019-05-05T14:40:05.687Z,9.53
2019-05-05T14:41:10.906Z,11.67
2019-05-05T14:42:16.114Z,11.90
2019-05-05T14:43:21.323Z,13.87
2019-05-05T14:44:26.449Z,18.17
2019-05-05T14:45:33.987Z,11.67